createdAt,value
2018-05-03T00:01:54.345Z,89.60
2018-05-03T00:04:20.609Z,89.60
2018-05-03T00:06:46.801Z,89.60
2018-05-03T00:09:13.041Z,89.40
2018-05-03T00:11:39.263Z,89.20
2018-05-03T00:14:06.205Z,89.20
2018-05-03T00:16:32.429Z,89.20
2018-05-03T00:18:58.759Z,89.40
2018-05-03T00:21:24.967Z,89.20
2018-05-03T00:23:51.178Z,88.90
2018-05-03T00:26:18.205Z,88.90
2018-05-03T00:28:44.357Z,88.80
2018-05-03T00:31:10.571Z,88.80
2018-05-03T00:33:36.786Z,88.80
2018-05-03T00:36:03.015Z,88.80
2018-05-03T00:38:29.236Z,88.90
2018-05-03T00:40:56.208Z,89.40
2018-05-03T00:43:22.413Z,89.40
2018-05-03T00:45:49.651Z,89.50
2018-05-03T00:48:15.868Z,89.40
2018-05-03T00:50:43.392Z,89.30
2018-05-03T00:53:09.616Z,89.30
2018-05-03T00:55:35.848Z,89.20
2018-05-03T00:58:02.094Z,89.20
2018-05-03T01:00:28.328Z,89.30
2018-05-03T01:02:54.558Z,89.40
2018-05-03T01:05:20.754Z,89.50
2018-05-03T01:07:47.694Z,89.90
2018-05-03T01:10:13.916Z,89.90
2018-05-03T01:12:40.158Z,90.00
2018-05-03T01:15:06.368Z,90.10
2018-05-03T01:17:32.624Z,90.20
2018-05-03T01:19:59.122Z,90.20
2018-05-03T01:22:26.118Z,90.20
2018-05-03T01:24:52.382Z,90.20
2018-05-03T01:27:18.597Z,90.20
2018-05-03T01:29:44.812Z,90.30
2018-05-03T01:32:11.066Z,90.30
2018-05-03T01:34:37.284Z,90.30
2018-05-03T01:37:04.257Z,90.40
2018-05-03T01:39:30.501Z,90.30
2018-05-03T01:41:56.762Z,90.30
2018-05-03T01:44:22.985Z,90.30
2018-05-03T01:46:49.214Z,90.40
2018-05-03T01:49:15.448Z,90.30
2018-05-03T01:51:41.807Z,90.30
2018-05-03T01:54:08.055Z,90.30
2018-05-03T01:56:34.281Z,90.30
2018-05-03T01:59:01.315Z,90.30
2018-05-03T02:01:27.551Z,90.30
2018-05-03T02:03:54.510Z,90.40
2018-05-03T02:06:21.481Z,90.40
2018-05-03T02:08:48.449Z,90.40
2018-05-03T02:11:14.661Z,90.40
2018-05-03T02:13:40.897Z,90.40
2018-05-03T02:16:07.152Z,90.50
2018-05-03T02:18:34.115Z,90.30
2018-05-03T02:21:01.055Z,90.40
2018-05-03T02:23:27.240Z,90.30
2018-05-03T02:25:53.463Z,90.40
2018-05-03T02:28:19.691Z,90.40
2018-05-03T02:30:46.685Z,90.50
2018-05-03T02:33:12.915Z,90.50
2018-05-03T02:35:39.125Z,90.50
2018-05-03T02:38:05.374Z,90.60
2018-05-03T02:40:32.341Z,90.60
2018-05-03T02:42:58.562Z,90.60
2018-05-03T02:45:25.550Z,90.60
2018-05-03T02:47:51.768Z,90.60
2018-05-03T02:50:18.759Z,90.60
2018-05-03T02:52:45.339Z,90.60
2018-05-03T02:55:11.591Z,90.60
2018-05-03T02:57:56.421Z,90.50
2018-05-03T03:00:41.345Z,90.50
2018-05-03T03:03:26.877Z,90.70
2018-05-03T03:06:07.289Z,90.40
2018-05-03T03:08:52.001Z,90.40
2018-05-03T03:11:46.482Z,90.40
2018-05-03T03:14:40.769Z,90.50
2018-05-03T03:17:25.364Z,90.30
2018-05-03T03:20:21.760Z,90.20
2018-05-03T03:23:07.061Z,90.10
2018-05-03T03:25:45.503Z,90.10
2018-05-03T03:28:43.093Z,90.20
2018-05-03T03:31:36.427Z,90.20
2018-05-03T03:34:04.521Z,90.20
2018-05-03T03:36:53.795Z,90.30
2018-05-03T03:39:32.068Z,90.20
2018-05-03T03:41:59.114Z,90.20
2018-05-03T03:44:37.712Z,90.10
2018-05-03T03:47:03.954Z,90.10
2018-05-03T03:49:30.218Z,90.10
2018-05-03T03:51:56.424Z,90.10
2018-05-03T03:54:23.550Z,90.20
2018-05-03T03:56:49.782Z,90.20
2018-05-03T03:59:16.010Z,90.20
2018-05-03T04:01:42.234Z,90.20
2018-05-03T04:04:08.466Z,90.20
2018-05-03T04:06:34.678Z,90.10
2018-05-03T04:09:01.661Z,90.10
2018-05-03T04:11:27.884Z,90.10
2018-05-03T04:13:54.837Z,90.00
2018-05-03T04:16:21.819Z,90.00
2018-05-03T04:19:00.206Z,90.00
2018-05-03T04:21:52.354Z,90.00
2018-05-03T04:24:30.901Z,89.90
2018-05-03T04:26:57.144Z,89.60
2018-05-03T04:29:24.100Z,90.30
2018-05-03T04:31:51.056Z,90.20
2018-05-03T04:34:18.047Z,90.10
2018-05-03T04:36:44.273Z,90.10
2018-05-03T04:39:10.474Z,89.80
2018-05-03T04:41:36.709Z,89.90
2018-05-03T04:44:02.939Z,88.40
2018-05-03T04:46:29.153Z,88.40
2018-05-03T04:48:55.369Z,89.50
2018-05-03T04:51:21.595Z,88.30
2018-05-03T04:53:48.553Z,87.40
2018-05-03T04:56:15.643Z,86.40
2018-05-03T04:58:41.909Z,86.40
2018-05-03T05:01:08.154Z,86.20
2018-05-03T05:03:34.391Z,85.50
2018-05-03T05:06:00.611Z,86.00
2018-05-03T05:08:26.847Z,85.40
2018-05-03T05:10:53.085Z,85.80
2018-05-03T05:13:19.299Z,87.00
2018-05-03T05:15:46.282Z,85.10
2018-05-03T05:18:12.533Z,85.00
2018-05-03T05:20:38.751Z,85.80
2018-05-03T05:23:04.971Z,85.10
2018-05-03T05:25:31.960Z,83.00
2018-05-03T05:27:58.181Z,83.00
2018-05-03T05:30:25.152Z,81.40
2018-05-03T05:32:51.407Z,81.30
2018-05-03T05:35:17.631Z,80.40
2018-05-03T05:37:43.857Z,81.00
2018-05-03T05:40:10.883Z,81.80
2018-05-03T05:42:37.111Z,81.70
2018-05-03T05:45:03.345Z,82.20
2018-05-03T05:47:29.588Z,83.00
2018-05-03T05:49:55.815Z,83.00
2018-05-03T05:52:22.055Z,82.60
2018-05-03T05:54:48.325Z,82.30
2018-05-03T05:57:15.063Z,82.30
2018-05-03T05:59:41.319Z,82.50
2018-05-03T06:02:07.557Z,82.40
2018-05-03T06:04:33.770Z,82.90
2018-05-03T06:07:00.005Z,83.10
2018-05-03T06:09:26.251Z,83.30
2018-05-03T06:11:52.448Z,83.60
2018-05-03T06:14:19.410Z,85.10
2018-05-03T06:16:46.412Z,83.90
2018-05-03T06:19:13.002Z,83.80
2018-05-03T06:21:39.227Z,83.60
2018-05-03T06:24:05.475Z,84.00
2018-05-03T06:26:31.718Z,83.90
2018-05-03T06:28:57.964Z,83.50
2018-05-03T06:31:24.262Z,83.00
2018-05-03T06:33:50.507Z,83.50
2018-05-03T06:36:16.818Z,83.80
2018-05-03T06:38:43.110Z,83.90
2018-05-03T06:41:09.378Z,83.80
2018-05-03T06:43:36.326Z,83.70
2018-05-03T06:46:02.626Z,83.60
2018-05-03T06:48:28.847Z,83.30
2018-05-03T06:50:55.102Z,83.20
2018-05-03T06:53:21.342Z,82.90
2018-05-03T06:55:47.556Z,82.50
2018-05-03T06:58:14.900Z,82.60
2018-05-03T07:00:41.146Z,82.40
2018-05-03T07:03:07.372Z,81.90
2018-05-03T07:05:33.588Z,81.20
2018-05-03T07:07:59.844Z,80.40
2018-05-03T07:10:26.062Z,79.80
2018-05-03T07:12:52.266Z,79.20
2018-05-03T07:15:19.235Z,79.10
2018-05-03T07:17:45.466Z,79.10
2018-05-03T07:20:12.426Z,79.20
2018-05-03T07:22:38.666Z,79.20
2018-05-03T07:25:04.905Z,78.90
2018-05-03T07:27:31.130Z,78.60
2018-05-03T07:29:58.102Z,79.20
2018-05-03T07:32:24.350Z,79.20
2018-05-03T07:34:50.785Z,78.70
2018-05-03T07:37:17.768Z,77.70
2018-05-03T07:39:43.986Z,77.70
2018-05-03T07:42:10.957Z,77.40
2018-05-03T07:44:37.195Z,78.10
2018-05-03T07:47:03.469Z,78.20
2018-05-03T07:49:29.682Z,78.10
2018-05-03T07:51:56.010Z,78.10
2018-05-03T07:54:22.239Z,77.40
2018-05-03T07:56:49.191Z,76.90
2018-05-03T07:59:16.306Z,77.00
2018-05-03T08:01:42.529Z,77.00
2018-05-03T08:04:08.747Z,77.40
2018-05-03T08:06:35.745Z,76.30
2018-05-03T08:09:02.005Z,76.20
2018-05-03T08:11:28.244Z,76.00
2018-05-03T08:13:55.211Z,74.00
2018-05-03T08:16:22.173Z,74.10
2018-05-03T08:18:48.441Z,74.00
2018-05-03T08:21:15.445Z,74.50
2018-05-03T08:23:41.657Z,74.40
2018-05-03T08:26:07.871Z,74.30
2018-05-03T08:28:34.134Z,73.90
2018-05-03T08:31:00.367Z,72.80
2018-05-03T08:33:26.573Z,73.00
2018-05-03T08:35:52.800Z,73.70
2018-05-03T08:38:19.775Z,73.50
2018-05-03T08:40:45.997Z,73.50
2018-05-03T08:43:12.266Z,72.90
2018-05-03T08:45:38.484Z,72.70
2018-05-03T08:48:04.726Z,72.20
2018-05-03T08:50:30.936Z,71.50
2018-05-03T08:52:59.572Z,71.30
2018-05-03T08:55:25.806Z,71.10
2018-05-03T08:57:52.053Z,71.40
2018-05-03T09:00:18.474Z,71.20
2018-05-03T09:02:44.696Z,69.80
2018-05-03T09:05:10.941Z,69.40
2018-05-03T09:07:37.193Z,69.30
2018-05-03T09:10:03.484Z,68.70
2018-05-03T09:12:30.456Z,68.10
2018-05-03T09:14:56.672Z,67.90
2018-05-03T09:17:23.648Z,67.40
2018-05-03T09:19:49.870Z,67.30
2018-05-03T09:22:16.090Z,66.80
2018-05-03T09:24:43.778Z,65.80
2018-05-03T09:27:10.036Z,65.40
2018-05-03T09:29:36.275Z,65.50
2018-05-03T09:32:03.256Z,66.30
2018-05-03T09:34:29.505Z,66.20
2018-05-03T09:36:55.949Z,67.50
2018-05-03T09:39:22.162Z,67.20
2018-05-03T09:41:49.144Z,66.10
2018-05-03T09:44:15.372Z,66.10
2018-05-03T09:46:41.602Z,64.40
2018-05-03T09:49:07.836Z,65.20
2018-05-03T09:51:34.855Z,63.70
2018-05-03T09:54:01.083Z,63.60
2018-05-03T09:56:27.323Z,63.10
2018-05-03T09:58:53.563Z,62.60
2018-05-03T10:01:20.141Z,63.20
2018-05-03T10:03:46.420Z,63.20
2018-05-03T10:06:13.387Z,62.20
2018-05-03T10:08:39.609Z,62.30
2018-05-03T10:11:06.579Z,60.40
2018-05-03T10:13:32.809Z,60.40
2018-05-03T10:15:59.778Z,58.70
2018-05-03T10:18:26.027Z,58.60
2018-05-03T10:20:52.284Z,58.10
2018-05-03T10:23:18.514Z,58.40
2018-05-03T10:25:44.747Z,58.20
2018-05-03T10:28:10.971Z,57.90
2018-05-03T10:30:37.927Z,57.20
2018-05-03T10:33:04.916Z,56.90
2018-05-03T10:35:31.129Z,56.90
2018-05-03T10:37:57.346Z,56.40
2018-05-03T10:40:23.595Z,54.70
2018-05-03T10:42:50.549Z,55.50
2018-05-03T10:45:16.805Z,55.40
2018-05-03T10:47:43.753Z,55.10
2018-05-03T10:50:10.704Z,54.40
2018-05-03T10:52:37.656Z,54.00
2018-05-03T10:55:03.912Z,54.00
2018-05-03T10:57:30.942Z,52.70
2018-05-03T10:59:57.110Z,52.50
2018-05-03T11:02:24.211Z,53.00
2018-05-03T11:04:50.437Z,52.90
2018-05-03T11:07:16.629Z,53.40
2018-05-03T11:09:42.890Z,54.00
2018-05-03T11:12:09.910Z,52.90
2018-05-03T11:14:36.150Z,52.80
2018-05-03T11:17:09.413Z,51.50
2018-05-03T11:19:35.642Z,51.10
2018-05-03T11:22:01.855Z,51.40
2018-05-03T11:24:28.099Z,52.30
2018-05-03T11:26:54.312Z,52.50
2018-05-03T11:29:20.549Z,52.60
2018-05-03T11:31:46.782Z,52.70
2018-05-03T11:34:13.134Z,53.20
2018-05-03T11:36:40.152Z,53.70
2018-05-03T11:39:06.387Z,53.50
2018-05-03T11:41:33.355Z,53.80
2018-05-03T11:43:59.609Z,53.80
2018-05-03T11:46:25.846Z,54.50
2018-05-03T11:48:52.091Z,54.40
2018-05-03T11:51:18.388Z,53.90
2018-05-03T11:53:45.347Z,54.30
2018-05-03T11:56:11.609Z,54.30
2018-05-03T11:58:37.823Z,53.50
2018-05-03T12:01:04.119Z,53.40
2018-05-03T12:03:30.497Z,53.00
2018-05-03T12:05:56.753Z,52.70
2018-05-03T12:08:23.013Z,53.10
2018-05-03T12:10:49.981Z,51.80
2018-05-03T12:13:16.200Z,51.80
2018-05-03T12:15:43.288Z,49.60
2018-05-03T12:18:09.569Z,49.50
2018-05-03T12:20:35.805Z,49.40
2018-05-03T12:23:02.083Z,49.10
2018-05-03T12:25:28.334Z,48.20
2018-05-03T12:27:55.329Z,46.70
2018-05-03T12:30:21.588Z,46.60
2018-05-03T12:32:47.804Z,46.90
2018-05-03T12:35:14.036Z,46.90
2018-05-03T12:37:40.301Z,47.40
2018-05-03T12:40:06.519Z,47.00
2018-05-03T12:42:32.755Z,47.00
2018-05-03T12:44:59.000Z,46.70
2018-05-03T12:47:25.236Z,46.40
2018-05-03T12:49:51.508Z,46.50
2018-05-03T12:52:17.785Z,46.80
2018-05-03T12:54:44.010Z,47.10
2018-05-03T12:57:10.248Z,47.00
2018-05-03T12:59:36.458Z,47.00
2018-05-03T13:02:02.751Z,46.30
2018-05-03T13:04:29.974Z,44.90
2018-05-03T13:06:56.577Z,44.80
2018-05-03T13:09:23.544Z,44.90
2018-05-03T13:11:50.562Z,45.70
2018-05-03T13:14:16.865Z,45.70
2018-05-03T13:16:43.888Z,45.50
2018-05-03T13:19:10.858Z,45.60
2018-05-03T13:21:37.089Z,45.80
2018-05-03T13:24:04.060Z,46.90
2018-05-03T13:26:30.293Z,46.90
2018-05-03T13:28:57.205Z,49.70
2018-05-03T13:31:23.464Z,49.60
2018-05-03T13:33:49.685Z,50.90
2018-05-03T13:36:15.909Z,51.70
2018-05-03T13:38:42.188Z,52.20
2018-05-03T13:41:08.452Z,52.80
2018-05-03T13:43:34.729Z,53.10
2018-05-03T13:46:00.980Z,53.90
2018-05-03T13:48:27.214Z,54.10
2018-05-03T13:50:53.489Z,54.50
2018-05-03T13:53:19.821Z,55.00
2018-05-03T13:55:46.016Z,55.70
2018-05-03T13:58:12.260Z,56.50
2018-05-03T14:00:39.247Z,56.60
2018-05-03T14:03:05.468Z,56.60
2018-05-03T14:05:31.953Z,56.90
2018-05-03T14:07:59.055Z,57.20
2018-05-03T14:10:25.276Z,57.10
2018-05-03T14:12:52.239Z,55.90
2018-05-03T14:15:19.223Z,54.90
2018-05-03T14:17:45.455Z,54.80
2018-05-03T14:20:11.682Z,54.10
2018-05-03T14:22:37.950Z,54.50
2018-05-03T14:25:04.167Z,54.50
2018-05-03T14:27:30.396Z,54.80
2018-05-03T14:29:56.656Z,55.30
2018-05-03T14:32:22.893Z,53.90
2018-05-03T14:34:49.123Z,53.20
2018-05-03T14:37:15.388Z,52.60
2018-05-03T14:39:41.597Z,53.50
2018-05-03T14:42:08.603Z,54.90
2018-05-03T14:44:34.843Z,54.90
2018-05-03T14:47:01.145Z,55.20
2018-05-03T14:49:27.385Z,54.50
2018-05-03T14:51:53.640Z,53.60
2018-05-03T14:54:19.843Z,53.80
2018-05-03T14:56:46.059Z,55.00
2018-05-03T14:59:12.308Z,55.90
2018-05-03T15:01:38.551Z,56.30
2018-05-03T15:04:04.767Z,55.90
2018-05-03T15:06:31.336Z,54.70
2018-05-03T15:08:58.475Z,55.30
2018-05-03T15:11:24.684Z,55.10
2018-05-03T15:13:50.979Z,55.00
2018-05-03T15:16:18.033Z,54.00
2018-05-03T15:18:44.141Z,54.00
2018-05-03T15:21:10.412Z,54.20
2018-05-03T15:23:36.627Z,54.30
2018-05-03T15:26:02.854Z,53.90
2018-05-03T15:28:29.120Z,53.90
2018-05-03T15:30:55.562Z,54.80
2018-05-03T15:33:22.522Z,55.40
2018-05-03T15:35:49.075Z,55.40
2018-05-03T15:38:15.308Z,55.20
2018-05-03T15:40:41.545Z,56.20
2018-05-03T15:43:07.792Z,57.20
2018-05-03T15:45:34.020Z,57.90
2018-05-03T15:48:00.232Z,58.40
2018-05-03T15:50:27.227Z,59.10
2018-05-03T15:52:53.478Z,59.00
2018-05-03T15:55:19.688Z,58.50
2018-05-03T15:57:45.928Z,58.40
2018-05-03T16:00:12.152Z,58.10
2018-05-03T16:02:39.160Z,58.10
2018-05-03T16:05:05.398Z,58.10
2018-05-03T16:07:32.441Z,58.80
2018-05-03T16:09:58.693Z,59.40
2018-05-03T16:12:24.925Z,59.80
2018-05-03T16:14:51.155Z,60.10
2018-05-03T16:17:17.389Z,60.00
2018-05-03T16:19:43.641Z,59.70
2018-05-03T16:22:09.857Z,59.40
2018-05-03T16:24:36.089Z,59.30
2018-05-03T16:27:02.363Z,60.00
2018-05-03T16:29:28.591Z,61.20
2018-05-03T16:31:54.827Z,62.50
2018-05-03T16:34:21.084Z,63.60
2018-05-03T16:36:47.371Z,64.50
2018-05-03T16:39:13.609Z,65.40
2018-05-03T16:41:39.862Z,66.10
2018-05-03T16:44:06.804Z,66.50
2018-05-03T16:46:33.027Z,66.50
2018-05-03T16:48:59.263Z,66.90
2018-05-03T16:51:25.539Z,66.90
2018-05-03T16:53:51.841Z,67.40
2018-05-03T16:56:18.152Z,67.50
2018-05-03T16:58:44.449Z,67.30
2018-05-03T17:01:10.762Z,67.60
2018-05-03T17:03:37.105Z,67.60
2018-05-03T17:06:03.360Z,67.30
2018-05-03T17:08:29.701Z,66.60
2018-05-03T17:10:55.948Z,66.40
2018-05-03T17:13:22.199Z,66.10
2018-05-03T17:15:48.448Z,66.20
2018-05-03T17:18:14.696Z,66.20
2018-05-03T17:20:40.923Z,66.40
2018-05-03T17:23:07.150Z,66.80
2018-05-03T17:25:33.419Z,67.10
2018-05-03T17:27:59.631Z,67.50
2018-05-03T17:30:25.903Z,67.80
2018-05-03T17:32:52.893Z,69.20
2018-05-03T17:35:19.152Z,68.90
2018-05-03T17:37:45.400Z,69.50
2018-05-03T17:40:11.670Z,69.90
2018-05-03T17:42:37.900Z,70.50
2018-05-03T17:45:04.163Z,70.80
2018-05-03T17:47:31.146Z,71.50
2018-05-03T17:49:57.399Z,71.60
2018-05-03T17:52:23.650Z,72.00
2018-05-03T17:54:49.882Z,72.30
2018-05-03T17:57:16.113Z,72.70
2018-05-03T17:59:42.382Z,73.20
2018-05-03T18:02:08.652Z,73.70
2018-05-03T18:04:34.971Z,74.00
2018-05-03T18:07:01.924Z,74.70
2018-05-03T18:09:28.420Z,74.70
2018-05-03T18:11:55.434Z,75.60
2018-05-03T18:14:21.662Z,75.60
2018-05-03T18:16:47.929Z,76.10
2018-05-03T18:19:14.205Z,76.50
2018-05-03T18:21:41.239Z,77.00
2018-05-03T18:24:07.520Z,77.00
2018-05-03T18:26:33.767Z,77.30
2018-05-03T18:28:59.994Z,77.60
2018-05-03T18:31:27.043Z,78.40
2018-05-03T18:33:54.074Z,78.60
2018-05-03T18:36:20.330Z,78.50
2018-05-03T18:38:46.619Z,78.80
2018-05-03T18:41:12.862Z,79.10
2018-05-03T18:43:39.119Z,79.30
2018-05-03T18:46:05.657Z,79.60
2018-05-03T18:48:31.903Z,79.50
2018-05-03T18:50:58.193Z,79.70
2018-05-03T18:53:25.211Z,79.70
2018-05-03T18:55:51.482Z,79.70
2018-05-03T18:58:17.727Z,79.80
2018-05-03T19:00:44.747Z,80.00
2018-05-03T19:03:11.007Z,80.00
2018-05-03T19:05:37.242Z,80.10
2018-05-03T19:08:03.523Z,80.30
2018-05-03T19:10:29.973Z,80.40
2018-05-03T19:12:56.990Z,80.80
2018-05-03T19:15:23.244Z,80.70
2018-05-03T19:17:49.596Z,80.70
2018-05-03T19:20:15.812Z,80.80
2018-05-03T19:22:42.085Z,80.80
2018-05-03T19:25:09.122Z,81.50
2018-05-03T19:27:35.368Z,80.90
2018-05-03T19:30:01.664Z,81.00
2018-05-03T19:32:27.979Z,81.20
2018-05-03T19:34:55.022Z,81.30
2018-05-03T19:37:21.366Z,81.10
2018-05-03T19:39:47.645Z,81.10
2018-05-03T19:42:13.966Z,81.40
2018-05-03T19:44:40.301Z,81.40
2018-05-03T19:47:07.297Z,81.90
2018-05-03T19:49:33.592Z,81.80
2018-05-03T19:52:00.830Z,82.40
2018-05-03T19:54:27.117Z,82.30
2018-05-03T19:56:54.152Z,82.70
2018-05-03T19:59:20.469Z,82.70
2018-05-03T20:01:46.766Z,82.90
2018-05-03T20:04:12.999Z,82.90
2018-05-03T20:06:39.372Z,83.00
2018-05-03T20:09:05.620Z,83.00
2018-05-03T20:11:32.186Z,83.10
2018-05-03T20:13:58.501Z,83.50
2018-05-03T20:16:24.759Z,84.60
2018-05-03T20:18:50.985Z,86.40
2018-05-03T20:21:17.278Z,88.10
2018-05-03T20:23:43.528Z,89.60
2018-05-03T20:26:09.772Z,90.60
2018-05-03T20:28:36.030Z,91.40
2018-05-03T20:31:02.252Z,92.10
2018-05-03T20:33:29.235Z,93.00
2018-05-03T20:35:55.555Z,93.00
2018-05-03T20:38:22.526Z,94.10
2018-05-03T20:40:49.492Z,94.60
2018-05-03T20:43:15.721Z,94.60
2018-05-03T20:45:42.720Z,95.10
2018-05-03T20:48:08.969Z,95.10
2018-05-03T20:50:35.251Z,95.30
2018-05-03T20:53:02.222Z,96.00
2018-05-03T20:55:28.455Z,96.00
2018-05-03T20:57:55.453Z,96.50
2018-05-03T21:00:21.695Z,96.50
2018-05-03T21:02:47.901Z,96.60
2018-05-03T21:05:14.889Z,96.80
2018-05-03T21:07:41.140Z,96.80
2018-05-03T21:10:07.375Z,96.60
2018-05-03T21:12:33.865Z,96.50
2018-05-03T21:15:00.134Z,96.60
2018-05-03T21:17:26.507Z,96.70
2018-05-03T21:19:52.733Z,96.90
2018-05-03T21:22:18.957Z,97.00
2018-05-03T21:24:45.176Z,97.10
2018-05-03T21:27:12.201Z,97.20
2018-05-03T21:29:38.437Z,97.10
2018-05-03T21:32:04.694Z,97.30
2018-05-03T21:34:30.958Z,97.50
2018-05-03T21:36:57.214Z,97.70
2018-05-03T21:39:24.162Z,97.80
2018-05-03T21:41:51.147Z,97.90
2018-05-03T21:44:18.101Z,98.10
2018-05-03T21:46:44.314Z,98.00
2018-05-03T21:49:11.306Z,98.20
2018-05-03T21:51:37.554Z,98.20
2018-05-03T21:54:03.780Z,98.20
2018-05-03T21:56:30.046Z,98.30
2018-05-03T21:58:56.264Z,98.50
2018-05-03T22:01:22.465Z,98.60
2018-05-03T22:03:49.525Z,98.80
2018-05-03T22:06:15.687Z,98.80
2018-05-03T22:08:41.921Z,99.00
2018-05-03T22:11:08.146Z,99.10
2018-05-03T22:13:34.466Z,99.30
2018-05-03T22:16:00.690Z,99.40
2018-05-03T22:18:26.906Z,99.60
2018-05-03T22:20:53.119Z,99.70
2018-05-03T22:23:20.020Z,99.90
2018-05-03T22:25:46.242Z,99.80
2018-05-03T22:28:12.450Z,99.90
2018-05-03T22:30:39.422Z,99.90
2018-05-03T22:33:05.650Z,99.90
2018-05-03T22:35:32.606Z,99.90
2018-05-03T22:37:59.626Z,99.90
2018-05-03T22:40:25.857Z,99.90
2018-05-03T22:42:52.251Z,99.90
2018-05-03T22:45:19.193Z,99.90
2018-05-03T22:47:45.422Z,99.90
2018-05-03T22:50:11.673Z,99.90
2018-05-03T22:52:37.870Z,99.90
2018-05-03T22:55:04.094Z,99.90
2018-05-03T22:57:30.327Z,99.90
2018-05-03T22:59:56.546Z,99.90
2018-05-03T23:02:23.499Z,99.90
2018-05-03T23:04:50.439Z,99.90
2018-05-03T23:07:16.644Z,99.90
2018-05-03T23:09:42.901Z,99.90
2018-05-03T23:12:09.133Z,99.90
2018-05-03T23:14:35.577Z,99.90
2018-05-03T23:17:01.822Z,99.90
2018-05-03T23:19:28.017Z,99.90
2018-05-03T23:21:54.973Z,99.90
2018-05-03T23:24:21.199Z,99.90
2018-05-03T23:26:48.143Z,99.90
2018-05-03T23:29:14.361Z,99.90
2018-05-03T23:31:40.589Z,99.90
2018-05-03T23:34:06.873Z,99.90
2018-05-03T23:36:33.975Z,99.90
2018-05-03T23:39:00.290Z,99.90
2018-05-03T23:41:27.341Z,99.90
2018-05-03T23:43:54.399Z,99.90
2018-05-03T23:46:21.440Z,99.90
2018-05-03T23:48:47.738Z,99.90
2018-05-03T23:51:14.042Z,99.90
2018-05-03T23:53:41.080Z,99.90
2018-05-03T23:56:07.374Z,99.90
2018-05-03T23:58:33.674Z,99.90
